Time;durP1;ratioP1;P1;durP2;ratioP2;P2;SDS_P1;SDS_P2;PMS_P1;PMS_P2;Temp;Humidity;BMP_temperature;BMP_pressure;BME280_temperature;BME280_humidity;BME280_pressure;Samples;Min_cycle;Max_cycle;Signal;HPM_P1;HPM_P2
2022/08/21 00:00:13;;;;;;;19.20;12.10;;;;;;;22.98;61.78;98466.19;237897;1192;139811;-56
2022/08/21 00:05:39;;;;;;;18.20;11.10;;;;;;;22.96;61.74;98469.38;238647;1191;139146;-56
2022/08/21 00:10:44;;;;;;;17.10;11.50;;;;;;;22.92;61.83;98464.02;238422;1190;138850;-57
2022/08/21 00:15:48;;;;;;;21.80;11.20;;;;;;;22.89;61.89;98459.14;238524;1190;140345;-56
2022/08/21 00:20:52;;;;;;;15.90;10.90;;;;;;;22.90;61.95;98445.30;238453;1191;141219;-56
2022/08/21 00:25:55;;;;;;;18.40;11.20;;;;;;;22.93;61.98;98448.36;238961;1191;140225;-55
2022/08/21 00:30:58;;;;;;;18.40;11.60;;;;;;;22.93;62.03;98450.71;239055;1190;139614;-56
2022/08/21 00:36:02;;;;;;;16.00;11.50;;;;;;;22.93;61.97;98446.79;238936;1191;140027;-57
2022/08/21 00:41:08;;;;;;;19.80;12.10;;;;;;;22.88;61.92;98441.89;238800;1191;139744;-56
2022/08/21 00:46:31;;;;;;;16.90;11.70;;;;;;;22.83;61.93;98433.44;239005;1192;139933;-56
2022/08/21 00:51:49;;;;;;;20.10;12.20;;;;;;;22.85;62.02;98429.95;238789;1191;140058;-57
2022/08/21 00:56:58;;;;;;;17.50;12.00;;;;;;;22.85;62.05;98418.77;238941;1190;139315;-56
2022/08/21 01:02:05;;;;;;;20.90;13.10;;;;;;;22.81;62.17;98418.09;238919;1191;165016;-56
2022/08/21 01:07:08;;;;;;;22.10;13.00;;;;;;;22.80;62.24;98414.62;238903;1192;140090;-56
2022/08/21 01:12:12;;;;;;;21.10;12.30;;;;;;;22.76;62.12;98410.59;238325;1192;140104;-56
2022/08/21 01:17:17;;;;;;;;;;;;;;;22.77;62.30;98411.40;238941;1190;141617;-57
2022/08/21 01:22:20;;;;;;;19.60;12.50;;;;;;;22.78;62.34;98412.06;239078;1192;125855;-57
2022/08/21 01:27:23;;;;;;;21.40;13.50;;;;;;;22.80;62.60;98414.99;238937;1190;139983;-56
2022/08/21 01:32:26;;;;;;;21.10;13.50;;;;;;;22.78;62.44;98407.86;238986;1191;139552;-57
2022/08/21 01:37:29;;;;;;;21.20;13.40;;;;;;;22.77;62.54;98405.96;239026;1192;139550;-56
2022/08/21 01:42:33;;;;;;;18.20;12.70;;;;;;;22.73;62.49;98398.23;237780;1191;140048;-56
2022/08/21 01:47:37;;;;;;;23.00;12.70;;;;;;;22.67;62.47;98386.43;239017;1192;140346;-57
2022/08/21 01:52:40;;;;;;;19.90;12.10;;;;;;;22.65;62.58;98378.55;239182;1191;139687;-56
2022/08/21 01:57:44;;;;;;;18.20;12.80;;;;;;;22.64;62.78;98374.54;239036;1191;140492;-57
2022/08/21 02:02:47;;;;;;;25.30;13.80;;;;;;;22.64;62.67;98368.86;239024;1191;139394;-57
2022/08/21 02:07:52;;;;;;;19.80;13.20;;;;;;;22.64;62.77;98374.00;239019;1190;139402;-56
2022/08/21 02:12:56;;;;;;;21.10;13.90;;;;;;;22.62;62.96;98377.10;237521;1191;139562;-57
2022/08/21 02:18:01;;;;;;;19.00;13.20;;;;;;;22.61;62.85;98371.58;238898;1191;139604;-56
2022/08/21 02:23:06;;;;;;;19.90;12.40;;;;;;;22.58;62.89;98368.91;238893;1190;141027;-57
2022/08/21 02:28:12;;;;;;;22.10;13.90;;;;;;;22.59;62.94;98367.01;238976;1192;139549;-58
2022/08/21 02:33:15;;;;;;;19.00;13.20;;;;;;;22.58;63.12;98358.91;238997;1191;139618;-56
2022/08/21 02:38:22;;;;;;;22.10;13.70;;;;;;;22.57;63.05;98348.82;238713;1191;139249;-57
2022/08/21 02:43:27;;;;;;;21.00;14.10;;;;;;;22.53;63.06;98346.41;237606;1190;139257;-56
2022/08/21 02:48:31;;;;;;;17.50;12.00;;;;;;;22.49;63.14;98341.44;239109;1190;140200;-56
2022/08/21 02:53:35;;;;;;;18.20;12.70;;;;;;;22.50;63.22;98340.14;238839;1192;139661;-57
2022/08/21 02:58:45;;;;;;;23.20;14.00;;;;;;;22.51;63.22;98339.77;239082;1191;140767;-57
2022/08/21 03:03:50;;;;;;;23.00;13.60;;;;;;;22.54;63.39;98343.50;238714;1192;139262;-56
2022/08/21 03:08:54;;;;;;;21.90;13.50;;;;;;;22.56;63.46;98343.85;238218;1192;139163;-57
2022/08/21 03:13:56;;;;;;;21.40;14.60;;;;;;;22.54;63.41;98346.58;239011;1190;139016;-57
2022/08/21 03:18:59;;;;;;;25.90;13.50;;;;;;;22.53;63.46;98351.33;239089;1191;139287;-57
2022/08/21 03:24:04;;;;;;;19.20;12.90;;;;;;;22.53;63.39;98361.70;239067;1190;140614;-57
2022/08/21 03:29:08;;;;;;;24.00;13.50;;;;;;;22.58;63.56;98370.51;239060;1190;139816;-57
2022/08/21 03:34:11;;;;;;;20.00;13.70;;;;;;;22.61;63.60;98365.85;239102;1190;140764;-56
2022/08/21 03:39:16;;;;;;;20.40;14.70;;;;;;;22.59;63.45;98363.84;238944;1192;139557;-57
2022/08/21 03:44:19;;;;;;;23.50;14.90;;;;;;;22.56;63.47;98370.84;239040;1190;139328;-57
2022/08/21 03:49:22;;;;;;;23.00;13.40;;;;;;;22.53;63.63;98374.64;238959;1192;139095;-56
2022/08/21 03:54:25;;;;;;;21.00;13.30;;;;;;;22.55;63.60;98375.41;238676;1190;140336;-56
2022/08/21 03:59:30;;;;;;;21.90;14.80;;;;;;;22.56;63.59;98376.15;238961;1191;139750;-56
2022/08/21 04:04:34;;;;;;;20.30;14.60;;;;;;;22.57;63.64;98379.50;239066;1191;140241;-56
2022/08/21 04:09:37;;;;;;;21.10;14.90;;;;;;;22.59;63.68;98377.86;238971;1191;139274;-58
2022/08/21 04:14:41;;;;;;;20.00;14.20;;;;;;;22.58;63.62;98385.15;238604;1192;138952;-56
2022/08/21 04:19:44;;;;;;;23.10;15.10;;;;;;;22.55;63.63;98384.80;238893;1191;140370;-57
2022/08/21 04:24:53;;;;;;;19.00;14.10;;;;;;;22.59;63.73;98389.62;238929;1190;140215;-57
2022/08/21 04:29:56;;;;;;;19.60;13.90;;;;;;;22.62;63.76;98396.02;238284;1191;140241;-57
2022/08/21 04:35:01;;;;;;;21.70;15.30;;;;;;;22.63;63.75;98397.81;239046;1190;139913;-57
2022/08/21 04:40:05;;;;;;;26.80;15.10;;;;;;;22.61;63.83;98393.66;239156;1190;140570;-57
2022/08/21 04:45:09;;;;;;;22.70;15.10;;;;;;;22.61;63.91;98399.83;238703;1192;139711;-56
2022/08/21 04:50:12;;;;;;;23.80;15.40;;;;;;;22.61;63.87;98400.54;238874;1192;139813;-56
2022/08/21 04:55:18;;;;;;;20.80;14.30;;;;;;;22.66;64.03;98398.95;238696;1190;140228;-57
2022/08/21 05:00:24;;;;;;;25.40;15.80;;;;;;;22.73;63.96;98397.79;238683;1192;139796;-57
2022/08/21 05:05:29;;;;;;;23.30;15.60;;;;;;;22.77;63.96;98401.42;238822;1190;139289;-56
2022/08/21 05:10:32;;;;;;;23.80;16.10;;;;;;;22.76;63.88;98405.38;238580;1192;139850;-57
2022/08/21 05:15:35;;;;;;;22.60;15.60;;;;;;;22.74;63.91;98407.64;238874;1192;140233;-57
2022/08/21 05:20:38;;;;;;;21.20;15.80;;;;;;;22.71;63.96;98409.65;239032;1190;139998;-57
2022/08/21 05:25:41;;;;;;;19.30;13.90;;;;;;;22.73;64.00;98409.79;238698;1192;140608;-56
2022/08/21 05:30:44;;;;;;;23.20;15.70;;;;;;;22.76;64.10;98413.15;238733;1192;139848;-55
2022/08/21 05:35:51;;;;;;;24.60;15.10;;;;;;;22.82;64.26;98413.52;238775;1190;139867;-57
2022/08/21 05:40:54;;;;;;;24.10;16.10;;;;;;;22.87;64.27;98415.95;238824;1192;140635;-57
2022/08/21 05:45:58;;;;;;;22.60;16.30;;;;;;;22.93;64.32;98414.59;239072;1190;140325;-56
2022/08/21 05:51:06;;;;;;;23.90;15.00;;;;;;;22.97;64.33;98414.91;238925;1191;139647;-56
2022/08/21 05:56:11;;;;;;;22.50;14.90;;;;;;;23.05;64.25;98413.04;238890;1192;141488;-56
2022/08/21 06:01:15;;;;;;;23.40;16.10;;;;;;;23.14;64.28;98409.44;239041;1190;139864;-56
2022/08/21 06:06:18;;;;;;;22.60;16.20;;;;;;;23.22;64.26;98411.23;238533;1190;139775;-57
2022/08/21 06:11:21;;;;;;;25.10;16.40;;;;;;;23.27;64.29;98411.04;238938;1190;140350;-56
2022/08/21 06:16:30;;;;;;;22.70;17.40;;;;;;;23.27;64.05;98411.04;239098;1192;140300;-55
2022/08/21 06:21:33;;;;;;;30.40;16.60;;;;;;;23.27;64.11;98412.96;238988;1190;139330;-57
2022/08/21 06:26:36;;;;;;;25.80;16.70;;;;;;;23.33;64.08;98412.75;238917;1190;140897;-56
2022/08/21 06:31:40;;;;;;;27.30;16.90;;;;;;;23.37;63.97;98405.44;238946;1191;140965;-57
2022/08/21 06:36:44;;;;;;;23.10;17.60;;;;;;;23.41;64.01;98410.02;237016;1190;140075;-56
2022/08/21 06:41:47;;;;;;;24.20;17.90;;;;;;;23.44;64.12;98412.17;238434;1190;140095;-57
2022/08/21 06:46:50;;;;;;;23.70;16.70;;;;;;;23.45;64.09;98413.45;239109;1192;139593;-56
2022/08/21 06:51:53;;;;;;;23.80;15.50;;;;;;;23.50;64.17;98418.14;238966;1191;139770;-57
2022/08/21 06:56:56;;;;;;;24.40;16.30;;;;;;;23.59;64.26;98422.37;239001;1190;140274;-58
2022/08/21 07:02:00;;;;;;;24.70;16.30;;;;;;;23.70;64.10;98427.58;236816;1192;139332;-57
2022/08/21 07:07:03;;;;;;;24.00;17.60;;;;;;;23.75;63.90;98428.67;239055;1190;141214;-58
2022/08/21 07:12:06;;;;;;;25.30;16.30;;;;;;;23.78;64.03;98435.79;239084;1190;140554;-58
2022/08/21 07:17:09;;;;;;;25.10;18.40;;;;;;;23.79;63.90;98430.75;238905;1192;140033;-58
2022/08/21 07:22:17;;;;;;;25.90;17.10;;;;;;;23.78;63.80;98431.78;239065;1192;138912;-57
2022/08/21 07:27:21;;;;;;;23.20;16.10;;;;;;;23.81;63.68;98432.90;238757;1192;140376;-58
2022/08/21 07:32:24;;;;;;;23.00;17.20;;;;;;;23.84;63.66;98437.23;238759;1192;139139;-58
2022/08/21 07:37:27;;;;;;;24.50;17.10;;;;;;;23.87;63.75;98434.05;238717;1192;139480;-58
2022/08/21 07:42:31;;;;;;;28.90;17.20;;;;;;;23.92;63.71;98438.27;238887;1192;139741;-57
2022/08/21 07:47:35;;;;;;;24.00;17.90;;;;;;;23.93;63.68;98435.44;238738;1191;139336;-57
2022/08/21 07:52:45;;;;;;;24.80;16.30;;;;;;;23.92;63.61;98437.23;238927;1191;138945;-57
2022/08/21 07:57:48;;;;;;;24.00;17.90;;;;;;;23.98;63.61;98432.30;238011;1192;139882;-58
2022/08/21 08:02:53;;;;;;;27.10;17.20;;;;;;;24.05;63.64;98431.54;238763;1192;139656;-57
2022/08/21 08:07:56;;;;;;;23.10;16.80;;;;;;;24.10;63.51;98428.13;238842;1190;139231;-57
2022/08/21 08:13:00;;;;;;;20.90;15.80;;;;;;;24.15;63.51;98426.88;238869;1191;140049;-57
2022/08/21 08:18:03;;;;;;;23.40;15.30;;;;;;;24.23;63.64;98427.62;238656;1192;139456;-57
2022/08/21 08:23:10;;;;;;;20.40;15.00;;;;;;;24.33;63.40;98425.00;237686;1192;140674;-57
2022/08/21 08:28:13;;;;;;;24.10;16.00;;;;;;;24.39;63.39;98423.77;238107;1190;138946;-57
2022/08/21 08:33:19;;;;;;;24.40;15.70;;;;;;;24.46;63.27;98426.85;238936;1191;139035;-58
2022/08/21 08:38:25;;;;;;;20.80;15.30;;;;;;;24.52;63.13;98423.88;238845;1192;139973;-57
2022/08/21 08:43:29;;;;;;;21.50;15.50;;;;;;;24.60;63.21;98427.64;238854;1192;139503;-57
2022/08/21 08:48:35;;;;;;;22.90;15.80;;;;;;;24.69;63.09;98427.15;238899;1192;141058;-57
2022/08/21 08:54:02;;;;;;;21.70;15.20;;;;;;;24.73;62.86;98425.38;238899;1191;139062;-58
2022/08/21 08:59:26;;;;;;;23.20;15.80;;;;;;;24.81;62.87;98426.38;238114;1190;139722;-58
2022/08/21 09:04:30;;;;;;;22.40;15.90;;;;;;;24.92;62.98;98417.92;238993;1192;139205;-58
2022/08/21 09:09:51;;;;;;;25.10;17.30;;;;;;;25.04;62.95;98411.88;238854;1191;139817;-57
2022/08/21 09:15:12;;;;;;;21.70;14.50;;;;;;;25.16;62.73;98409.94;238742;1190;141054;-58
2022/08/21 09:20:44;;;;;;;19.60;14.00;;;;;;;25.29;62.81;98406.91;238788;1190;140369;-57
2022/08/21 09:26:04;;;;;;;18.70;13.90;;;;;;;25.42;62.65;98399.34;238501;1192;139785;-57
2022/08/21 09:31:15;;;;;;;21.00;15.40;;;;;;;25.55;62.52;98392.18;238694;1190;139654;-57
2022/08/21 09:36:40;;;;;;;15.40;12.20;;;;;;;25.69;62.38;98388.61;238859;1190;139347;-58
2022/08/21 09:41:43;;;;;;;18.10;13.80;;;;;;;25.86;62.22;98379.95;238611;1192;139473;-58
2022/08/21 09:46:52;;;;;;;18.40;14.20;;;;;;;25.96;62.00;98377.40;238756;1192;139127;-57
2022/08/21 09:51:58;;;;;;;23.80;15.50;;;;;;;26.04;61.80;98374.91;238822;1190;139777;-58
2022/08/21 10:02:38;;;;;;;24.20;15.00;;;;;;;26.29;61.36;98369.90;238694;1191;139861;-58
2022/08/21 10:07:41;;;;;;;20.10;13.90;;;;;;;26.26;61.10;98369.66;238726;1192;141658;-57
2022/08/21 10:12:57;;;;;;;15.90;13.00;;;;;;;26.31;61.05;98368.21;238932;1190;141217;-57
2022/08/21 10:18:20;;;;;;;18.60;14.40;;;;;;;26.44;60.84;98366.18;238906;1190;140587;-59
2022/08/21 10:23:41;;;;;;;27.20;14.50;;;;;;;26.52;60.86;98365.94;238658;1191;138773;-59
2022/08/21 10:29:11;;;;;;;23.20;13.70;;;;;;;26.60;60.55;98369.02;238991;1190;140894;-60
2022/08/21 10:34:52;;;;;;;19.50;14.60;;;;;;;26.66;60.54;98364.77;238860;1192;139507;-59
2022/08/21 10:40:31;;;;;;;23.10;14.70;;;;;;;26.70;60.40;98366.66;237642;1192;139104;-59
2022/08/21 10:46:10;;;;;;;22.00;13.90;;;;;;;26.71;59.95;98365.37;238854;1190;139354;-59
2022/08/21 10:51:32;;;;;;;20.70;14.40;;;;;;;26.72;60.07;98363.64;238708;1190;139080;-59
2022/08/21 10:56:40;;;;;;;19.30;15.10;;;;;;;26.79;60.04;98362.95;238595;1192;139368;-60
2022/08/21 11:02:25;;;;;;;22.10;15.10;;;;;;;26.95;59.85;98365.73;238598;1191;138971;-59
2022/08/21 11:07:43;;;;;;;22.30;16.80;;;;;;;27.05;59.76;98364.55;238668;1192;139734;-58
2022/08/21 11:12:53;;;;;;;27.60;17.30;;;;;;;27.14;59.78;98359.71;238753;1192;140023;-59
2022/08/21 11:18:26;;;;;;;30.90;21.70;;;;;;;27.13;59.58;98355.72;238200;1190;140809;-58
2022/08/21 11:23:38;;;;;;;20.90;15.10;;;;;;;27.12;59.47;98358.95;238712;1192;139997;-59
2022/08/21 11:29:00;;;;;;;18.90;12.10;;;;;;;27.16;59.10;98362.60;238829;1192;139451;-59
2022/08/21 11:34:12;;;;;;;12.90;7.90;;;;;;;27.06;58.51;98357.66;239084;1190;140228;-58
2022/08/21 11:39:25;;;;;;;10.80;6.60;;;;;;;27.03;58.41;98364.23;238377;1190;139019;-58
2022/08/21 11:44:50;;;;;;;7.60;5.00;;;;;;;26.93;57.98;98370.06;237743;1192;140757;-58
2022/08/21 11:50:16;;;;;;;12.70;5.10;;;;;;;26.76;57.72;98365.78;238926;1191;141280;-58
2022/08/21 11:55:57;;;;;;;8.30;4.30;;;;;;;26.55;57.73;98367.97;238650;1192;138805;-58
2022/08/21 12:01:30;;;;;;;8.30;5.00;;;;;;;26.31;57.77;98369.93;238282;1192;138903;-58
2022/08/21 12:06:40;;;;;;;5.10;3.20;;;;;;;26.03;57.72;98368.88;238857;1192;138983;-58
2022/08/21 12:11:47;;;;;;;6.20;3.00;;;;;;;25.91;58.06;98373.38;238798;1192;140088;-58
2022/08/21 12:16:51;;;;;;;6.10;4.60;;;;;;;25.87;58.40;98372.46;238788;1192;140000;-57
2022/08/21 12:21:57;;;;;;;5.70;3.80;;;;;;;25.93;58.68;98374.80;238618;1191;139714;-58
2022/08/21 12:27:28;;;;;;;6.90;4.70;;;;;;;25.86;58.72;98365.83;238745;1191;139755;-58
2022/08/21 12:32:46;;;;;;;7.70;3.70;;;;;;;25.90;59.02;98361.95;238473;1192;139106;-58
2022/08/21 12:37:52;;;;;;;7.90;3.90;;;;;;;25.81;58.96;98352.39;238185;1191;140286;-58
2022/08/21 12:42:59;;;;;;;9.30;4.10;;;;;;;25.71;59.27;98363.65;238763;1191;140377;-58
2022/08/21 12:48:23;;;;;;;6.70;3.70;;;;;;;25.61;59.39;98372.98;238960;1190;139897;-58
2022/08/21 12:53:35;;;;;;;5.60;4.30;;;;;;;25.56;59.54;98367.70;238822;1190;139804;-58
2022/08/21 12:58:46;;;;;;;7.00;4.20;;;;;;;25.47;59.65;98359.22;237955;1192;139466;-58
2022/08/21 13:03:50;;;;;;;8.80;3.60;;;;;;;25.33;59.67;98351.95;238751;1192;139965;-59
2022/08/21 13:09:12;;;;;;;5.50;3.40;;;;;;;25.21;59.97;98354.73;238869;1192;140348;-59
2022/08/21 13:14:28;;;;;;;13.80;7.30;;;;;;;25.13;60.39;98363.46;238851;1190;140110;-58
2022/08/21 13:19:33;;;;;;;6.80;2.60;;;;;;;25.07;60.89;98366.47;238769;1192;140960;-58
2022/08/21 13:24:37;;;;;;;5.30;2.60;;;;;;;25.06;61.09;98362.77;238671;1192;139880;-58
2022/08/21 13:29:47;;;;;;;5.50;2.30;;;;;;;25.12;61.19;98368.31;238838;1192;139892;-59
2022/08/21 13:34:58;;;;;;;9.40;1.90;;;;;;;25.22;61.17;98374.89;239010;1190;139154;-58
2022/08/21 13:40:01;;;;;;;6.70;2.50;;;;;;;25.23;61.12;98382.23;237739;1192;139321;-59
2022/08/21 13:45:13;;;;;;;3.20;2.10;;;;;;;25.18;61.04;98381.29;238607;1192;139788;-59
2022/08/21 13:50:20;;;;;;;6.00;2.60;;;;;;;25.14;60.99;98384.96;238633;1190;140233;-58
2022/08/21 13:55:24;;;;;;;4.80;3.20;;;;;;;25.07;60.66;98398.10;238837;1192;139538;-59
2022/08/21 14:00:30;;;;;;;3.50;2.70;;;;;;;24.90;60.87;98398.08;238610;1192;139351;-57
2022/08/21 14:05:37;;;;;;;6.10;2.90;;;;;;;24.78;61.09;98397.00;238688;1191;139278;-59
2022/08/21 14:10:47;;;;;;;7.00;2.60;;;;;;;24.65;61.15;98396.61;239116;1190;139608;-59
2022/08/21 14:16:00;;;;;;;4.10;3.10;;;;;;;24.54;61.35;98392.31;236752;1190;140490;-58
2022/08/21 14:21:08;;;;;;;6.50;3.10;;;;;;;24.43;61.64;98380.83;238893;1190;138558;-58
2022/08/21 14:26:12;;;;;;;6.30;2.90;;;;;;;24.34;61.88;98373.13;238808;1192;139347;-58
2022/08/21 14:31:18;;;;;;;3.30;3.00;;;;;;;24.36;62.23;98385.07;238616;1192;139370;-59
2022/08/21 14:36:22;;;;;;;3.00;2.70;;;;;;;24.38;62.27;98395.28;238377;1190;138835;-60
2022/08/21 14:41:27;;;;;;;3.80;2.70;;;;;;;24.36;62.27;98397.41;238948;1190;139174;-60
2022/08/21 14:46:31;;;;;;;3.70;2.80;;;;;;;24.34;62.33;98397.81;238155;1190;139152;-58
2022/08/21 14:51:35;;;;;;;4.30;2.70;;;;;;;24.33;62.29;98402.30;238390;1192;139146;-58
2022/08/21 14:56:46;;;;;;;5.00;2.60;;;;;;;24.34;62.52;98402.20;238820;1192;138974;-58
2022/08/21 15:01:49;;;;;;;3.90;2.60;;;;;;;24.35;62.53;98401.49;238833;1191;139489;-59
2022/08/21 15:06:53;;;;;;;4.00;2.10;;;;;;;24.37;62.58;98400.13;238744;1190;138886;-58
2022/08/21 15:12:00;;;;;;;3.00;1.90;;;;;;;24.46;62.65;98409.73;238223;1190;139286;-58
2022/08/21 15:17:05;;;;;;;2.90;1.90;;;;;;;24.52;62.66;98410.65;238918;1190;139579;-60
2022/08/21 15:22:08;;;;;;;3.30;1.90;;;;;;;24.57;62.44;98411.09;238830;1192;139315;-58
2022/08/21 15:27:20;;;;;;;3.60;1.70;;;;;;;24.57;62.38;98411.02;238569;1191;140744;-59
2022/08/21 15:32:28;;;;;;;4.50;1.50;;;;;;;24.54;62.26;98425.35;238618;1190;140010;-59
2022/08/21 15:37:32;;;;;;;3.40;1.60;;;;;;;24.50;62.13;98433.57;239025;1192;140195;-58
2022/08/21 15:42:35;;;;;;;2.70;1.90;;;;;;;24.45;62.15;98437.71;239072;1190;139843;-59
2022/08/21 15:47:42;;;;;;;4.60;2.10;;;;;;;24.28;61.88;98442.83;238917;1191;139407;-58
2022/08/21 15:52:46;;;;;;;9.30;2.30;;;;;;;24.14;62.21;98454.52;238420;1191;140836;-58
2022/08/21 15:57:52;;;;;;;6.10;2.80;;;;;;;23.94;62.06;98461.63;238857;1190;140701;-58
2022/08/21 16:03:04;;;;;;;7.00;3.60;;;;;;;23.58;62.00;98466.24;238504;1190;138551;-60
2022/08/21 16:08:07;;;;;;;10.30;3.70;;;;;;;23.12;62.22;98466.59;238430;1192;138791;-58
2022/08/21 16:13:19;;;;;;;10.60;4.30;;;;;;;22.73;62.57;98461.80;238551;1192;139878;-60
2022/08/21 16:18:23;;;;;;;7.60;4.90;;;;;;;22.31;63.06;98435.85;238382;1192;138451;-59
2022/08/21 16:23:26;;;;;;;11.30;5.40;;;;;;;21.92;63.53;98420.84;237010;1192;139274;-59
2022/08/21 16:28:31;;;;;;;8.80;6.00;;;;;;;21.61;64.15;98440.01;238531;1191;139680;-60
2022/08/21 16:33:37;;;;;;;9.20;5.80;;;;;;;21.41;64.66;98460.39;238795;1192;210760;-58
2022/08/21 16:38:43;;;;;;;8.90;5.60;;;;;;;21.31;65.19;98479.49;238893;1191;138787;-57
2022/08/21 16:43:47;;;;;;;6.50;5.30;;;;;;;21.29;65.55;98487.86;238195;1192;139452;-57
2022/08/21 16:48:50;;;;;;;6.00;5.00;;;;;;;21.29;65.79;98488.02;238415;1192;139298;-57
2022/08/21 16:53:53;;;;;;;8.30;4.20;;;;;;;21.27;65.86;98474.36;238572;1192;139503;-56
2022/08/21 16:58:57;;;;;;;6.10;3.10;;;;;;;21.22;65.86;98464.21;238775;1191;140359;-56
2022/08/21 17:04:01;;;;;;;5.60;3.40;;;;;;;21.17;66.21;98453.92;238387;1192;139309;-58
2022/08/21 17:09:04;;;;;;;4.90;3.40;;;;;;;21.15;66.44;98469.83;239001;1190;139576;-56
2022/08/21 17:14:11;;;;;;;4.80;2.70;;;;;;;21.15;66.76;98468.07;238174;1192;138853;-56
2022/08/21 17:19:15;;;;;;;3.40;2.00;;;;;;;21.10;66.64;98462.11;238935;1190;139922;-55
2022/08/21 17:24:18;;;;;;;4.70;3.80;;;;;;;21.09;66.94;98450.54;238802;1190;139846;-55
2022/08/21 17:29:25;;;;;;;3.00;2.00;;;;;;;21.11;67.14;98462.96;238920;1191;138839;-56
2022/08/21 17:34:29;;;;;;;2.10;1.70;;;;;;;21.12;67.33;98477.77;239057;1191;140629;-57
2022/08/21 17:39:34;;;;;;;3.10;2.20;;;;;;;21.20;67.50;98488.16;239032;1190;140043;-57
2022/08/21 17:44:43;;;;;;;3.20;2.30;;;;;;;21.39;68.09;98491.09;239010;1190;139208;-56
2022/08/21 17:49:46;;;;;;;3.60;2.80;;;;;;;21.65;68.58;98498.54;238752;1192;138758;-55
2022/08/21 17:54:49;;;;;;;5.30;2.00;;;;;;;21.87;68.28;98509.91;238979;1190;139696;-57
2022/08/21 17:59:54;;;;;;;2.60;1.80;;;;;;;21.99;67.69;98507.36;238908;1192;139756;-57
2022/08/21 18:05:01;;;;;;;2.70;2.10;;;;;;;22.10;67.68;98516.88;239160;1192;139144;-55
2022/08/21 18:10:07;;;;;;;2.50;2.10;;;;;;;22.21;67.41;98518.69;238889;1190;139274;-57
2022/08/21 18:15:16;;;;;;;2.40;2.20;;;;;;;22.25;67.11;98519.10;238862;1190;139784;-55
2022/08/21 18:20:21;;;;;;;3.80;2.30;;;;;;;22.18;66.26;98514.77;238702;1190;139507;-57
2022/08/21 18:25:25;;;;;;;3.20;2.50;;;;;;;21.97;65.88;98515.80;238990;1192;139039;-57
2022/08/21 18:30:28;;;;;;;3.70;2.30;;;;;;;21.79;65.93;98519.78;238808;1192;141861;-57
2022/08/21 18:35:31;;;;;;;2.60;2.00;;;;;;;21.68;66.09;98527.95;238487;1192;139408;-56
2022/08/21 18:40:37;;;;;;;3.90;1.80;;;;;;;21.59;66.13;98525.20;239119;1192;139590;-56
2022/08/21 18:45:41;;;;;;;2.60;1.80;;;;;;;21.55;66.24;98529.65;238997;1192;139141;-56
2022/08/21 18:50:46;;;;;;;2.30;1.70;;;;;;;21.51;66.27;98533.20;238949;1192;139285;-57
2022/08/21 18:55:50;;;;;;;4.10;2.00;;;;;;;21.42;66.18;98538.89;238527;1192;139170;-56
2022/08/21 19:00:54;;;;;;;5.20;1.70;;;;;;;21.34;66.12;98533.70;237809;1191;141338;-57
2022/08/21 19:05:57;;;;;;;2.80;1.90;;;;;;;21.29;66.41;98533.06;239039;1192;139171;-57
2022/08/21 19:11:01;;;;;;;1.70;1.60;;;;;;;21.25;66.46;98536.00;239103;1190;139692;-58
2022/08/21 19:16:07;;;;;;;1.50;1.30;;;;;;;21.15;66.38;98541.24;238628;1190;139621;-59
2022/08/21 19:21:11;;;;;;;;;;;;;;;21.08;66.46;98540.15;238941;1192;140930;-57
2022/08/21 19:26:15;;;;;;;2.40;1.80;;;;;;;21.00;66.49;98536.31;238983;1191;125876;-57
2022/08/21 19:31:40;;;;;;;3.40;1.70;;;;;;;20.93;66.58;98526.84;238968;1190;139361;-57
2022/08/21 19:36:44;;;;;;;1.70;1.20;;;;;;;20.86;66.54;98526.88;239071;1191;139250;-57
2022/08/21 19:41:51;;;;;;;1.70;1.40;;;;;;;20.83;66.57;98529.63;239041;1192;139636;-57
2022/08/21 19:46:57;;;;;;;2.00;1.80;;;;;;;20.74;66.56;98530.00;239219;1191;139430;-58
2022/08/21 19:52:01;;;;;;;1.70;1.60;;;;;;;20.66;66.62;98537.07;239002;1191;139629;-58
2022/08/21 19:57:15;;;;;;;2.80;1.40;;;;;;;20.58;66.44;98540.88;239060;1192;140016;-58
2022/08/21 20:02:20;;;;;;;1.80;1.70;;;;;;;20.52;66.68;98532.33;238763;1192;140218;-56
2022/08/21 20:07:23;;;;;;;2.20;2.00;;;;;;;20.48;66.73;98524.41;238970;1192;138541;-57
2022/08/21 20:12:29;;;;;;;3.00;1.70;;;;;;;20.44;66.79;98520.05;238849;1191;138956;-56
2022/08/21 20:17:32;;;;;;;2.30;1.50;;;;;;;20.40;66.81;98514.90;238901;1192;139518;-58
2022/08/21 20:22:35;;;;;;;1.70;1.40;;;;;;;20.38;66.90;98517.33;238052;1192;139417;-57
2022/08/21 20:27:40;;;;;;;2.10;1.40;;;;;;;20.33;66.87;98515.46;239099;1191;139682;-56
2022/08/21 20:32:43;;;;;;;1.50;1.40;;;;;;;20.30;66.96;98518.34;238914;1191;139666;-56
2022/08/21 20:37:46;;;;;;;1.50;1.20;;;;;;;20.26;66.99;98516.41;238771;1191;140376;-55
2022/08/21 20:43:02;;;;;;;2.50;1.50;;;;;;;20.28;66.96;98516.58;238445;1192;139505;-60
2022/08/21 20:48:19;;;;;;;2.70;1.50;;;;;;;20.26;67.02;98519.55;238941;1191;140081;-57
2022/08/21 20:53:36;;;;;;;2.90;1.40;;;;;;;20.19;67.02;98511.98;238993;1192;139090;-58
2022/08/21 20:59:09;;;;;;;1.60;0.90;;;;;;;20.14;67.03;98505.73;238981;1191;139670;-57
2022/08/21 21:04:52;;;;;;;1.20;1.10;;;;;;;20.07;67.13;98503.92;239164;1190;139211;-58
2022/08/21 21:09:57;;;;;;;1.20;1.00;;;;;;;20.09;67.17;98507.33;238975;1190;140839;-58
2022/08/21 21:15:20;;;;;;;2.20;1.40;;;;;;;20.10;67.13;98507.39;238841;1191;139002;-57
2022/08/21 21:21:02;;;;;;;2.70;1.50;;;;;;;20.03;67.17;98505.64;238988;1191;139451;-58
2022/08/21 21:26:45;;;;;;;1.30;0.90;;;;;;;20.01;67.27;98505.16;238953;1190;139667;-58
2022/08/21 21:31:52;;;;;;;1.20;1.10;;;;;;;20.07;67.40;98506.48;238954;1190;139581;-57
2022/08/21 21:37:04;;;;;;;1.70;1.30;;;;;;;20.15;67.39;98503.65;238858;1192;139628;-57
2022/08/21 21:42:22;;;;;;;1.60;1.10;;;;;;;20.13;67.17;98503.51;238354;1192;139600;-58
2022/08/21 21:47:42;;;;;;;1.10;1.00;;;;;;;20.11;67.30;98501.38;238927;1192;138823;-58
2022/08/21 21:53:04;;;;;;;4.10;1.30;;;;;;;20.10;67.23;98498.77;238199;1191;140669;-57
2022/08/21 21:58:38;;;;;;;1.40;1.20;;;;;;;20.12;67.39;98496.79;239109;1190;141412;-57
2022/08/21 22:03:56;;;;;;;2.10;1.30;;;;;;;20.10;67.41;98493.71;238992;1191;139305;-57
2022/08/21 22:09:17;;;;;;;2.80;1.00;;;;;;;20.08;67.35;98494.77;237030;1192;139717;-56
2022/08/21 22:14:20;;;;;;;4.30;1.00;;;;;;;20.05;67.23;98496.08;238734;1192;139060;-57
2022/08/21 22:19:33;;;;;;;2.80;0.90;;;;;;;20.05;67.46;98496.42;237378;1192;139997;-56
2022/08/21 22:24:41;;;;;;;2.00;1.00;;;;;;;20.05;67.39;98491.33;238990;1192;139569;-58
2022/08/21 22:29:49;;;;;;;1.10;0.90;;;;;;;20.05;67.38;98495.04;238927;1192;140202;-57
2022/08/21 22:35:07;;;;;;;1.80;0.80;;;;;;;20.03;67.35;98493.58;239089;1192;139700;-58
2022/08/21 22:40:18;;;;;;;1.20;1.00;;;;;;;20.05;67.41;98491.69;238911;1192;139455;-58
2022/08/21 22:45:22;;;;;;;1.40;1.10;;;;;;;20.06;67.42;98492.38;238429;1192;138626;-58
2022/08/21 22:50:25;;;;;;;1.00;0.90;;;;;;;20.03;67.44;98496.81;238533;1191;139593;-58
2022/08/21 22:55:42;;;;;;;1.60;0.70;;;;;;;20.04;67.38;98498.84;239057;1190;139678;-59
2022/08/21 23:01:21;;;;;;;2.00;1.00;;;;;;;20.05;67.44;98499.27;238933;1190;139409;-58
2022/08/21 23:06:33;;;;;;;1.70;1.20;;;;;;;20.02;67.41;98497.10;238087;1192;138848;-58
2022/08/21 23:11:39;;;;;;;1.50;1.10;;;;;;;20.00;67.48;98493.00;239051;1190;140138;-58
2022/08/21 23:17:14;;;;;;;2.90;1.40;;;;;;;20.00;67.48;98492.63;238894;1192;140812;-56
2022/08/21 23:22:20;;;;;;;2.80;2.00;;;;;;;20.04;67.64;98497.29;238847;1192;139588;-57
2022/08/21 23:27:47;;;;;;;3.80;2.50;;;;;;;20.01;67.47;98498.11;238893;1190;138706;-57